Aitutaki, Aitutaki Airport (NCAI)

NameAitutaki Airport
CityAitutaki
CountryCook Islands
ICAONCAI
IATAAIT
Altitude4 m
CoordinatesGoogle Map
Live Air TrafficLiveATC.net
METARNCAI 110900Z AUTO 31013KT 280V350 //// ////// 24/24 Q1011
2018-12-11 09:00:00 Wind: West-Northwest (310°) 6.69 m/s - Visibility: 3101 m - Temperature: 24 °C - Dew point: 24 °C - Humidity: 100% - Pressure: 1011 hPa
Statistics

The table below shows the detailed information of all flights to/from Aitutaki, Aitutaki Airport (NCAI).

Ident Aircraft Coming fromFrom Going toTo Owner nameOwnerSpotted durationDurationDate
VP-BYD - B738 - Azur Air KTK5292 BOEING 737-800 B738 Aitutaki, Cook Islands (NCAI) NCAI
16125 km
, Russia (UWGG) UWGG
833 km
Azur Air Azur Air - - Thu, 08 Nov 2018 20:24:25 +0000 8/11/2018 8:24 pm
VQ-BJK - B738 - Azur Air KTK5292 BOEING 737-800 B738 Aitutaki, Cook Islands (NCAI) NCAI
15473 km
, Russia (UWGG) UWGG
83 km
Azur Air Azur Air 01:24:49 01:24:49 Sun, 04 Nov 2018 23:35:45 +0000 4/11/2018 11:35 pm
Mon, 05 Nov 2018 01:00:34 +0000 5/11/2018 1:00 am
VQ-BJK - B738 - Azur Air KTK5292 BOEING 737-800 B738 Aitutaki, Cook Islands (NCAI) NCAI
17216 km
, Russia (UWGG) UWGG
1848 km
Azur Air Azur Air 00:26:21 00:26:21 Sun, 04 Nov 2018 22:09:18 +0000 4/11/2018 10:09 pm
Sun, 04 Nov 2018 22:35:39 +0000 4/11/2018 10:35 pm